Time;durP1;ratioP1;P1;durP2;ratioP2;P2;SDS_P1;SDS_P2;PMS_P1;PMS_P2;Temp;Humidity;BMP_temperature;BMP_pressure;BME280_temperature;BME280_humidity;BME280_pressure;Samples;Min_cycle;Max_cycle;Signal;HPM_P1;HPM_P2
2022/09/25 00:00:47;;;;;;;;;;;;;;;18.96;67.58;97284.94;545791;260;66576;-73
2022/09/25 00:03:15;;;;;;;;;;;;;;;18.97;68.42;97289.20;545771;260;65127;-73
2022/09/25 00:05:44;;;;;;;;;;;;;;;18.97;68.63;97285.73;545779;260;68881;-73
2022/09/25 00:08:13;;;;;;;;;;;;;;;18.96;67.99;97279.61;545767;256;68813;-73
2022/09/25 00:10:45;;;;;;;;;;;;;;;18.97;67.98;97280.41;545786;260;65144;-73
2022/09/25 00:13:13;;;;;;;;;;;;;;;18.97;68.25;97275.09;545767;260;68913;-73
2022/09/25 00:15:48;;;;;;;;;;;;;;;18.97;68.30;97272.42;545792;260;68520;-73
2022/09/25 00:19:48;;;;;;;;;;;;;;;18.96;68.27;97276.12;545769;260;65145;-73
2022/09/25 00:20:46;;;;;;;;;;;;;;;18.96;67.74;97273.45;545017;260;68862;-73
2022/09/25 00:23:14;;;;;;;;;;;;;;;18.95;68.39;97264.67;545740;260;69118;-73
2022/09/25 00:25:42;;;;;;;;;;;;;;;18.96;68.06;97265.47;545775;260;62974;-73
2022/09/25 00:28:09;;;;;;;;;;;;;;;18.95;68.40;97264.67;545782;257;68967;-73
2022/09/25 00:30:38;;;;;;;;;;;;;;;18.95;67.99;97259.34;545759;260;66749;-73
2022/09/25 00:33:06;;;;;;;;;;;;;;;18.95;67.76;97255.88;545773;260;65190;-73
2022/09/25 00:35:33;;;;;;;;;;;;;;;18.95;68.04;97258.55;545759;260;68951;-73
2022/09/25 00:38:01;;;;;;;;;;;;;;;18.95;67.47;97261.21;545755;260;68831;-73
2022/09/25 00:40:29;;;;;;;;;;;;;;;18.95;67.56;97258.55;545826;260;65101;-73
2022/09/25 00:42:56;;;;;;;;;;;;;;;18.95;68.01;97255.88;545784;260;68548;-73
2022/09/25 00:45:24;;;;;;;;;;;;;;;18.94;67.99;97252.42;545745;260;68910;-73
2022/09/25 00:47:56;;;;;;;;;;;;;;;18.94;67.74;97251.63;545730;260;65098;-73
2022/09/25 00:50:28;;;;;;;;;;;;;;;18.94;67.91;97255.08;541565;259;66987;-73
2022/09/25 00:52:57;;;;;;;;;;;;;;;18.93;68.24;97253.45;546780;259;68780;-73
2022/09/25 00:55:25;;;;;;;;;;;;;;;18.94;67.84;97252.42;546206;259;65151;-73
2022/09/25 00:57:53;;;;;;;;;;;;;;;18.94;67.81;97248.95;545783;257;68891;-73
2022/09/25 01:00:21;;;;;;;;;;;;;;;18.94;68.43;97251.63;545730;257;66953;-73
2022/09/25 01:02:52;;;;;;;;;;;;;;;18.93;68.26;97253.45;545775;260;65140;-73
2022/09/25 01:05:21;;;;;;;;;;;;;;;18.93;67.82;97245.47;545787;260;66745;-73
2022/09/25 01:07:49;;;;;;;;;;;;;;;18.93;68.29;97242.01;545761;260;68851;-73
2022/09/25 01:10:18;;;;;;;;;;;;;;;18.93;68.09;97247.33;545655;259;63850;-73
2022/09/25 01:12:47;;;;;;;;;;;;;;;18.92;67.76;97249.20;545597;259;68871;-74
2022/09/25 01:15:16;;;;;;;;;;;;;;;18.94;67.83;97251.63;545630;259;66725;-73
2022/09/25 01:17:49;;;;;;;;;;;;;;;18.92;68.34;97248.40;545637;259;65190;-73
2022/09/25 01:20:18;;;;;;;;;;;;;;;18.93;68.14;97252.66;545648;259;66713;-73
2022/09/25 01:23:05;;;;;;;;;;;;;;;18.93;68.38;97250.00;538578;260;66592;-73
2022/09/25 01:25:35;;;;;;;;;;;;;;;18.92;68.52;97254.52;545640;259;63035;-73
2022/09/25 01:28:09;;;;;;;;;;;;;;;18.91;68.26;97250.27;538578;259;66791;-73
2022/09/25 01:30:38;;;;;;;;;;;;;;;18.92;68.01;97253.72;545418;259;68376;-73
2022/09/25 01:33:10;;;;;;;;;;;;;;;18.92;67.70;97259.05;545650;259;65623;-73
2022/09/25 01:35:45;;;;;;;;;;;;;;;18.91;67.78;97252.13;545602;257;68893;-73
2022/09/25 01:38:26;;;;;;;;;;;;;;;18.91;67.86;97249.47;545709;259;69101;-73
2022/09/25 01:41:01;;;;;;;;;;;;;;;18.91;68.08;97242.27;545693;259;63115;-73
2022/09/25 01:43:39;;;;;;;;;;;;;;;18.91;67.93;97246.80;545595;259;68941;-73
2022/09/25 01:46:18;;;;;;;;;;;;;;;18.91;67.84;97252.13;546025;258;68985;-73
2022/09/25 01:48:47;;;;;;;;;;;;;;;18.91;67.99;97252.92;545718;257;65378;-74
2022/09/25 01:51:16;;;;;;;;;;;;;;;18.90;67.97;97251.30;545678;259;69140;-73
2022/09/25 01:53:45;;;;;;;;;;;;;;;18.90;67.78;97250.50;545480;257;68544;-73
2022/09/25 01:56:30;;;;;;;;;;;;;;;18.90;67.98;97253.16;545550;259;65106;-73
2022/09/25 01:58:57;;;;;;;;;;;;;;;18.90;67.72;97242.52;545501;257;68429;-73
2022/09/25 02:01:29;;;;;;;;;;;;;;;18.89;67.84;97249.70;545642;260;68573;-73
2022/09/25 02:03:59;;;;;;;;;;;;;;;18.89;67.69;97257.69;545605;259;69859;-73
2022/09/25 02:06:27;;;;;;;;;;;;;;;18.89;67.84;97254.23;545647;260;69014;-73
2022/09/25 02:09:00;;;;;;;;;;;;;;;18.90;68.06;97258.48;545606;259;66688;-73
2022/09/25 02:11:29;;;;;;;;;;;;;;;18.89;67.95;97251.56;545411;259;65050;-73
2022/09/25 02:13:58;;;;;;;;;;;;;;;18.89;67.85;97251.56;545649;257;68799;-73
2022/09/25 02:16:27;;;;;;;;;;;;;;;18.89;68.06;97259.56;545620;260;68637;-73
2022/09/25 02:21:41;;;;;;;;;;;;;;;18.89;68.09;97259.56;545669;259;68867;-73
2022/09/25 02:24:22;;;;;;;;;;;;;;;18.88;67.45;97257.93;545687;259;68947;-73
2022/09/25 02:26:51;;;;;;;;;;;;;;;18.88;68.20;97256.09;545662;260;65216;-73
2022/09/25 02:29:19;;;;;;;;;;;;;;;18.88;68.16;97257.93;545635;259;68866;-73
2022/09/25 02:31:52;;;;;;;;;;;;;;;18.88;67.86;97257.93;545615;259;66728;-73
2022/09/25 02:34:20;;;;;;;;;;;;;;;18.87;67.71;97257.13;545737;259;65011;-73
2022/09/25 02:36:48;;;;;;;;;;;;;;;18.87;67.93;97259.80;545674;259;68830;-73
2022/09/25 02:39:17;;;;;;;;;;;;;;;18.87;67.78;97264.33;545900;259;66797;-73
2022/09/25 02:41:52;;;;;;;;;;;;;;;18.87;67.66;97269.65;545645;260;65128;-73
2022/09/25 02:44:30;;;;;;;;;;;;;;;18.87;67.68;97259.00;545657;259;66431;-73
2022/09/25 02:47:11;;;;;;;;;;;;;;;18.86;67.83;97260.86;545651;257;66602;-73
2022/09/25 02:49:55;;;;;;;;;;;;;;;18.87;67.97;97256.33;545638;259;63065;-73
2022/09/25 02:52:25;;;;;;;;;;;;;;;18.87;67.62;97248.34;545824;259;68981;-73
2022/09/25 02:55:00;;;;;;;;;;;;;;;18.86;68.16;97244.88;545260;257;69127;-73
2022/09/25 02:57:38;;;;;;;;;;;;;;;18.85;68.35;97246.75;545554;259;65098;-73
2022/09/25 03:00:07;;;;;;;;;;;;;;;18.85;67.65;97238.76;545636;259;66855;-73
2022/09/25 03:02:36;;;;;;;;;;;;;;;18.86;68.21;97239.55;545604;259;68772;-73
2022/09/25 03:05:05;;;;;;;;;;;;;;;18.86;67.41;97244.88;545659;259;65163;-73
2022/09/25 03:08:36;;;;;;;;;;;;;;;18.86;67.49;97252.88;545717;259;68973;-73
2022/09/25 03:10:03;;;;;;;;;;;;;;;18.85;67.85;97254.73;544928;260;68699;-73
2022/09/25 03:12:32;;;;;;;;;;;;;;;18.85;67.48;97256.57;545701;257;65321;-73
2022/09/25 03:15:00;;;;;;;;;;;;;;;18.84;68.06;97258.44;545635;259;68740;-73
2022/09/25 03:17:28;;;;;;;;;;;;;;;18.85;68.50;97262.73;545756;259;68767;-73
2022/09/25 03:19:55;;;;;;;;;;;;;;;18.85;68.06;97257.41;545827;259;63118;-73
2022/09/25 03:22:23;;;;;;;;;;;;;;;18.84;68.09;97263.77;545698;259;66904;-73
2022/09/25 03:24:50;;;;;;;;;;;;;;;18.84;67.69;97261.09;545673;257;68704;-73
2022/09/25 03:27:20;;;;;;;;;;;;;;;18.85;67.78;97259.23;545968;259;63136;-73
2022/09/25 03:29:48;;;;;;;;;;;;;;;18.84;67.78;97253.11;545620;259;68767;-73
2022/09/25 03:32:16;;;;;;;;;;;;;;;18.83;67.50;97256.84;545653;259;67076;-73
2022/09/25 03:34:43;;;;;;;;;;;;;;;18.84;67.77;97252.31;545657;257;62868;-73
2022/09/25 03:37:11;;;;;;;;;;;;;;;18.83;67.58;97251.52;545668;260;66918;-73
2022/09/25 03:39:39;;;;;;;;;;;;;;;18.83;68.13;97251.52;545690;259;68725;-74
2022/09/25 03:42:06;;;;;;;;;;;;;;;18.84;67.83;97260.30;545736;259;65143;-73
2022/09/25 03:44:34;;;;;;;;;;;;;;;18.82;67.44;97255.24;545646;259;68965;-73
2022/09/25 03:47:01;;;;;;;;;;;;;;;18.83;67.45;97248.05;545887;259;68718;-74
2022/09/25 03:49:29;;;;;;;;;;;;;;;18.83;67.69;97261.36;545628;257;65275;-74
2022/09/25 03:51:59;;;;;;;;;;;;;;;18.82;68.14;97255.24;545702;259;66762;-73
2022/09/25 03:54:25;;;;;;;;;;;;;;;18.82;66.91;97249.09;545655;259;68382;-74
2022/09/25 03:56:53;;;;;;;;;;;;;;;18.83;67.40;97250.72;545712;258;63302;-74
2022/09/25 03:59:21;;;;;;;;;;;;;;;18.82;67.55;97239.27;545725;259;68919;-73
2022/09/25 04:01:48;;;;;;;;;;;;;;;18.82;67.60;97238.44;545686;259;68838;-74
2022/09/25 04:04:16;;;;;;;;;;;;;;;18.82;68.07;97243.77;545786;259;65265;-74
2022/09/25 04:06:43;;;;;;;;;;;;;;;18.81;67.30;97248.29;545767;259;69108;-74
2022/09/25 04:09:11;;;;;;;;;;;;;;;18.82;67.91;97249.09;545595;256;69127;-73
2022/09/25 04:11:38;;;;;;;;;;;;;;;18.81;67.77;97247.49;545651;259;63035;-73
2022/09/25 04:14:06;;;;;;;;;;;;;;;18.81;67.47;97252.81;545670;259;66698;-74
2022/09/25 04:16:33;;;;;;;;;;;;;;;18.80;67.97;97251.22;545748;259;66544;-74
2022/09/25 04:19:01;;;;;;;;;;;;;;;18.81;67.72;97250.95;545781;259;65011;-74
2022/09/25 04:21:28;;;;;;;;;;;;;;;18.81;67.94;97255.48;545693;259;68897;-74
2022/09/25 04:26:41;;;;;;;;;;;;;;;18.80;67.41;97257.34;545674;259;65352;-73
2022/09/25 04:29:08;;;;;;;;;;;;;;;18.81;67.48;97250.16;545700;259;68428;-74
2022/09/25 04:31:36;;;;;;;;;;;;;;;18.79;66.96;97247.73;545771;259;68583;-74
2022/09/25 04:34:04;;;;;;;;;;;;;;;18.80;67.39;97256.55;545724;259;63174;-73
2022/09/25 04:36:31;;;;;;;;;;;;;;;18.80;67.45;97256.55;545640;259;69151;-73
2022/09/25 04:38:59;;;;;;;;;;;;;;;18.80;67.23;97260.00;545868;259;68725;-74
2022/09/25 04:41:28;;;;;;;;;;;;;;;18.79;67.96;97261.05;545674;259;65146;-74
2022/09/25 04:43:55;;;;;;;;;;;;;;;18.79;67.72;97261.05;545655;259;68756;-73
2022/09/25 04:46:23;;;;;;;;;;;;;;;18.79;67.77;97258.38;545841;259;69050;-73
2022/09/25 04:48:51;;;;;;;;;;;;;;;18.79;67.96;97254.92;545722;256;65062;-73
2022/09/25 04:51:20;;;;;;;;;;;;;;;18.78;67.98;97259.45;545641;260;68987;-73
2022/09/25 04:53:48;;;;;;;;;;;;;;;18.78;67.56;97259.45;545641;259;66690;-73
2022/09/25 04:56:15;;;;;;;;;;;;;;;18.78;67.34;97254.12;545677;259;65289;-74
2022/09/25 04:58:48;;;;;;;;;;;;;;;18.79;67.44;97252.26;545804;259;69003;-73
2022/09/25 05:01:16;;;;;;;;;;;;;;;18.78;67.29;97248.80;545725;259;68820;-73
2022/09/25 05:03:45;;;;;;;;;;;;;;;18.78;66.63;97254.12;545633;259;63007;-73
2022/09/25 05:06:13;;;;;;;;;;;;;;;18.78;67.12;97259.45;545627;259;68945;-74
2022/09/25 05:08:40;;;;;;;;;;;;;;;18.77;67.22;97252.52;546298;258;69018;-73
2022/09/25 05:11:08;;;;;;;;;;;;;;;18.79;67.41;97254.92;545779;259;65114;-73
2022/09/25 05:13:35;;;;;;;;;;;;;;;18.78;67.69;97253.32;545776;259;68881;-74
2022/09/25 05:16:03;;;;;;;;;;;;;;;18.77;67.90;97249.86;545784;259;66500;-73
2022/09/25 05:18:30;;;;;;;;;;;;;;;18.77;67.42;97252.52;545766;259;63337;-74
2022/09/25 05:21:00;;;;;;;;;;;;;;;18.77;67.85;97247.20;545804;259;69090;-74
2022/09/25 05:23:27;;;;;;;;;;;;;;;18.78;67.32;97246.13;545687;259;67014;-73
2022/09/25 05:26:00;;;;;;;;;;;;;;;18.76;67.54;97248.23;545809;259;62867;-73
2022/09/25 05:28:25;;;;;;;;;;;;;;;18.76;67.50;97240.25;545697;259;70596;-74
2022/09/25 05:30:52;;;;;;;;;;;;;;;18.77;67.53;97246.37;545759;259;66792;-74
2022/09/25 05:33:20;;;;;;;;;;;;;;;18.76;67.51;97234.92;545744;260;63004;-73
2022/09/25 05:35:47;;;;;;;;;;;;;;;18.76;67.45;97242.11;545840;259;66892;-74
2022/09/25 05:38:15;;;;;;;;;;;;;;;18.76;67.69;97242.11;545792;259;68819;-73
2022/09/25 05:40:43;;;;;;;;;;;;;;;18.76;67.18;97248.23;545867;259;63208;-73
2022/09/25 05:43:11;;;;;;;;;;;;;;;18.76;67.89;97252.77;545776;259;68294;-73
2022/09/25 05:45:39;;;;;;;;;;;;;;;18.76;67.88;97244.77;545851;259;68893;-72
2022/09/25 05:48:07;;;;;;;;;;;;;;;18.76;68.06;97255.42;545767;259;63055;-72
2022/09/25 05:50:35;;;;;;;;;;;;;;;18.76;67.73;97258.08;545785;257;68907;-72
2022/09/25 05:53:03;;;;;;;;;;;;;;;18.75;67.59;97254.63;545812;259;68821;-74
2022/09/25 05:55:31;;;;;;;;;;;;;;;18.75;67.50;97253.83;545766;256;63028;-74
2022/09/25 05:58:02;;;;;;;;;;;;;;;18.74;67.73;97247.70;545792;257;68800;-72
2022/09/25 06:00:31;;;;;;;;;;;;;;;18.74;68.01;97247.70;545772;259;66752;-72
2022/09/25 06:02:59;;;;;;;;;;;;;;;18.74;67.83;97253.03;545833;259;65004;-72
2022/09/25 06:05:27;;;;;;;;;;;;;;;18.75;68.34;97253.83;545890;257;66214;-73
2022/09/25 06:07:54;;;;;;;;;;;;;;;18.74;68.25;97249.50;545883;259;68688;-73
2022/09/25 06:10:24;;;;;;;;;;;;;;;18.73;68.10;97248.70;545909;257;65074;-73
2022/09/25 06:12:57;;;;;;;;;;;;;;;18.73;68.03;97248.70;545720;257;48834;-73
2022/09/25 06:15:27;;;;;;;;;;;;;;;18.72;68.21;97247.11;541778;259;51963;-73
2022/09/25 06:17:55;;;;;;;;;;;;;;;18.72;68.18;97244.45;546855;259;63286;-73
2022/09/25 06:20:23;;;;;;;;;;;;;;;18.73;67.65;97238.06;545769;259;68720;-73
2022/09/25 06:22:52;;;;;;;;;;;;;;;18.73;67.74;97240.72;545774;260;68515;-73
2022/09/25 06:25:21;;;;;;;;;;;;;;;18.75;68.09;97240.52;545754;257;65143;-73
2022/09/25 06:27:51;;;;;;;;;;;;;;;18.74;67.93;97239.72;545787;257;68686;-73
2022/09/25 06:30:19;;;;;;;;;;;;;;;18.75;68.37;97233.33;545596;259;68482;-73
2022/09/25 06:32:46;;;;;;;;;;;;;;;18.76;69.10;97240.25;545732;260;65192;-73
2022/09/25 06:35:14;;;;;;;;;;;;;;;18.77;69.73;97241.05;545743;260;69035;-73
2022/09/25 06:37:41;;;;;;;;;;;;;;;18.75;69.72;97238.65;545740;260;69055;-72
2022/09/25 06:40:09;;;;;;;;;;;;;;;18.76;69.17;97228.80;545757;260;65125;-72
2022/09/25 06:42:37;;;;;;;;;;;;;;;18.76;69.40;97234.92;545797;260;68887;-72
2022/09/25 06:45:05;;;;;;;;;;;;;;;18.76;69.49;97229.59;545783;260;68781;-72
2022/09/25 06:47:33;;;;;;;;;;;;;;;18.77;69.59;97230.39;545783;257;65053;-72
2022/09/25 06:50:00;;;;;;;;;;;;;;;18.77;70.29;97241.05;545772;260;66758;-72
2022/09/25 06:52:28;;;;;;;;;;;;;;;18.77;69.91;97233.88;545791;260;66796;-72
2022/09/25 06:54:56;;;;;;;;;;;;;;;18.78;70.03;97240.01;545821;260;65176;-72
2022/09/25 06:57:24;;;;;;;;;;;;;;;18.77;70.00;97239.21;545777;260;66461;-72
2022/09/25 06:59:51;;;;;;;;;;;;;;;18.77;70.12;97231.22;545788;260;66860;-72
2022/09/25 07:05:04;;;;;;;;;;;;;;;18.78;70.33;97232.82;545751;260;69399;-73
2022/09/25 07:07:32;;;;;;;;;;;;;;;18.78;70.45;97232.02;545769;259;68973;-73
2022/09/25 07:10:00;;;;;;;;;;;;;;;18.77;69.92;97225.90;545655;259;62835;-73
2022/09/25 07:12:27;;;;;;;;;;;;;;;18.77;70.05;97228.56;545694;257;69064;-73
2022/09/25 07:14:57;;;;;;;;;;;;;;;18.77;69.55;97225.90;545821;259;49685;-73
2022/09/25 07:17:24;;;;;;;;;;;;;;;18.78;70.14;97227.49;545747;260;65212;-73
2022/09/25 07:19:52;;;;;;;;;;;;;;;18.77;70.23;97231.22;545845;257;69074;-73
2022/09/25 07:22:19;;;;;;;;;;;;;;;18.79;70.52;97236.28;545664;259;68814;-73
2022/09/25 07:24:47;;;;;;;;;;;;;;;18.78;70.51;97232.82;545809;259;65145;-73
2022/09/25 07:27:14;;;;;;;;;;;;;;;18.78;70.61;97222.17;545723;259;68896;-73
2022/09/25 07:29:42;;;;;;;;;;;;;;;18.77;70.99;97220.57;545648;259;68806;-73
2022/09/25 07:32:10;;;;;;;;;;;;;;;18.78;70.51;97224.83;545658;257;65054;-73
2022/09/25 07:34:39;;;;;;;;;;;;;;;18.78;70.63;97216.05;545666;259;51204;-73
2022/09/25 07:37:07;;;;;;;;;;;;;;;18.79;70.32;97223.77;545650;259;66848;-73
2022/09/25 07:39:35;;;;;;;;;;;;;;;18.79;70.75;97214.98;545874;259;63103;-73
2022/09/25 07:42:02;;;;;;;;;;;;;;;18.78;70.59;97216.84;545772;260;68904;-73
2022/09/25 07:44:30;;;;;;;;;;;;;;;18.79;70.94;97218.44;545657;259;66506;-73
2022/09/25 07:46:59;;;;;;;;;;;;;;;18.78;71.06;97214.18;545773;259;65101;-73
2022/09/25 07:49:27;;;;;;;;;;;;;;;18.78;71.01;97214.18;545631;259;68678;-73
2022/09/25 07:51:55;;;;;;;;;;;;;;;18.79;71.08;97213.11;545638;257;69128;-73
2022/09/25 07:54:23;;;;;;;;;;;;;;;18.78;70.41;97211.52;545707;257;65300;-73
2022/09/25 07:56:51;;;;;;;;;;;;;;;18.78;71.00;97211.52;545651;259;66610;-73
2022/09/25 07:59:18;;;;;;;;;;;;;;;18.77;69.94;97206.44;545695;259;66661;-73
2022/09/25 08:01:46;;;;;;;;;;;;;;;18.78;70.35;97203.53;545646;259;64008;-73
2022/09/25 08:04:13;;;;;;;;;;;;;;;18.78;70.62;97200.87;545658;259;68678;-73
2022/09/25 08:06:41;;;;;;;;;;;;;;;18.78;70.80;97195.55;545712;259;68931;-73
2022/09/25 08:09:10;;;;;;;;;;;;;;;18.78;70.65;97189.42;545814;256;65038;-73
2022/09/25 08:11:38;;;;;;;;;;;;;;;18.78;70.65;97179.57;545754;260;68529;-73
2022/09/25 08:14:05;;;;;;;;;;;;;;;18.79;70.44;97177.70;545798;260;68798;-73
2022/09/25 08:16:33;;;;;;;;;;;;;;;18.79;69.60;97175.05;545724;260;65069;-73
2022/09/25 08:19:00;;;;;;;;;;;;;;;18.78;70.30;97171.58;545771;260;69115;-73
2022/09/25 08:21:28;;;;;;;;;;;;;;;18.78;70.34;97174.24;545743;260;66709;-73
2022/09/25 08:23:55;;;;;;;;;;;;;;;18.78;70.99;97168.92;545761;260;64199;-73
2022/09/25 08:26:23;;;;;;;;;;;;;;;18.78;71.31;97163.59;545789;260;66760;-73
2022/09/25 08:28:51;;;;;;;;;;;;;;;18.78;70.13;97163.59;545756;260;68472;-73
2022/09/25 08:31:18;;;;;;;;;;;;;;;18.78;70.32;97154.81;545759;260;62934;-73
2022/09/25 08:33:46;;;;;;;;;;;;;;;18.78;70.79;97158.27;545772;260;69027;-73
2022/09/25 08:36:14;;;;;;;;;;;;;;;18.78;70.19;97160.93;545768;257;66621;-73
2022/09/25 08:38:42;;;;;;;;;;;;;;;18.79;71.14;97153.74;545781;257;65113;-73
2022/09/25 08:41:14;;;;;;;;;;;;;;;18.78;70.26;97147.62;545725;260;69109;-73
2022/09/25 08:43:43;;;;;;;;;;;;;;;18.77;70.46;97148.69;545474;260;68745;-73
2022/09/25 08:49:09;;;;;;;;;;;;;;;18.78;71.18;97157.47;545754;260;68780;-73
2022/09/25 08:51:37;;;;;;;;;;;;;;;18.78;71.09;97160.13;545509;259;68755;-72
2022/09/25 08:54:05;;;;;;;;;;;;;;;18.78;70.83;97162.80;546793;259;63409;-72
2022/09/25 08:56:34;;;;;;;;;;;;;;;18.78;70.64;97157.47;545762;260;66679;-73
2022/09/25 08:59:12;;;;;;;;;;;;;;;18.78;70.79;97152.14;545799;260;66513;-72
2022/09/25 09:01:41;;;;;;;;;;;;;;;18.78;71.28;97146.82;545455;260;65114;-72
2022/09/25 09:04:27;;;;;;;;;;;;;;;18.77;70.49;97140.70;545756;260;68814;-72
2022/09/25 09:06:56;;;;;;;;;;;;;;;18.78;70.63;97138.84;545749;260;67029;-72
2022/09/25 09:09:25;;;;;;;;;;;;;;;18.78;70.71;97128.19;545719;258;62945;-72
2022/09/25 09:11:56;;;;;;;;;;;;;;;18.78;70.59;97118.33;545810;259;66533;-72
2022/09/25 09:14:24;;;;;;;;;;;;;;;18.78;70.31;97115.67;547378;259;69059;-73
2022/09/25 09:16:54;;;;;;;;;;;;;;;18.78;70.74;97115.67;547263;259;65140;-73
2022/09/25 09:19:21;;;;;;;;;;;;;;;18.77;70.54;97110.59;547013;258;68830;-73
2022/09/25 09:21:59;;;;;;;;;;;;;;;18.77;71.39;97110.59;547250;256;66778;-73
2022/09/25 09:24:31;;;;;;;;;;;;;;;18.78;71.20;97104.22;547178;258;65172;-73
2022/09/25 09:27:16;;;;;;;;;;;;;;;18.78;71.66;97104.22;545766;259;68686;-73
2022/09/25 09:29:45;;;;;;;;;;;;;;;18.78;70.75;97098.90;545701;257;68772;-73
2022/09/25 09:32:20;;;;;;;;;;;;;;;18.78;70.84;97090.91;545689;259;64984;-73
2022/09/25 09:34:49;;;;;;;;;;;;;;;18.77;70.92;97092.78;545865;259;69096;-73
2022/09/25 09:37:18;;;;;;;;;;;;;;;18.77;71.02;97092.78;545478;257;68729;-73
2022/09/25 09:39:56;;;;;;;;;;;;;;;18.78;71.42;97088.25;545645;259;65162;-73
2022/09/25 09:42:26;;;;;;;;;;;;;;;18.77;70.91;97092.78;545484;259;69080;-73
2022/09/25 09:45:00;;;;;;;;;;;;;;;18.77;70.79;97084.79;545757;259;68915;-73
2022/09/25 09:47:30;;;;;;;;;;;;;;;18.77;70.74;97084.79;545702;259;62887;-72
2022/09/25 09:50:05;;;;;;;;;;;;;;;18.77;70.69;97081.30;545799;259;66827;-72
2022/09/25 09:52:36;;;;;;;;;;;;;;;18.77;71.23;97082.13;544913;260;66791;-72
2022/09/25 09:55:23;;;;;;;;;;;;;;;18.76;71.00;97071.72;545547;257;62923;-72
2022/09/25 09:57:56;;;;;;;;;;;;;;;18.76;70.90;97075.17;545719;259;68690;-72
2022/09/25 10:00:24;;;;;;;;;;;;;;;18.78;71.65;97082.92;545718;260;66769;-72
2022/09/25 10:02:54;;;;;;;;;;;;;;;18.77;70.73;97060.83;545719;259;65033;-72
2022/09/25 10:05:26;;;;;;;;;;;;;;;18.77;71.12;97054.67;545743;259;66789;-72
2022/09/25 10:07:53;;;;;;;;;;;;;;;18.77;71.19;97060.83;545957;258;68681;-73
2022/09/25 10:10:23;;;;;;;;;;;;;;;18.76;70.73;97061.87;545780;260;62904;-73
2022/09/25 10:12:52;;;;;;;;;;;;;;;18.77;70.89;97065.33;545417;260;66815;-73
2022/09/25 10:15:20;;;;;;;;;;;;;;;18.77;70.32;97067.98;545790;260;68370;-73
2022/09/25 10:17:48;;;;;;;;;;;;;;;18.77;70.51;97060.83;545642;259;65145;-73
2022/09/25 10:20:17;;;;;;;;;;;;;;;18.76;70.80;97053.88;545809;260;68703;-73
2022/09/25 10:22:46;;;;;;;;;;;;;;;18.77;70.72;97062.66;545745;259;68883;-73
2022/09/25 10:25:13;;;;;;;;;;;;;;;18.76;70.47;97061.87;545793;257;65235;-73
2022/09/25 10:27:45;;;;;;;;;;;;;;;18.77;70.43;97052.02;545796;260;66388;-73
2022/09/25 10:30:13;;;;;;;;;;;;;;;18.76;70.37;97053.88;545734;259;66623;-73
2022/09/25 10:32:54;;;;;;;;;;;;;;;18.77;71.11;97060.83;545788;256;65111;-73
2022/09/25 10:35:23;;;;;;;;;;;;;;;18.76;70.62;97051.22;545769;260;66480;-72
2022/09/25 10:37:54;;;;;;;;;;;;;;;18.77;71.09;97044.03;545800;260;68811;-73
2022/09/25 10:40:30;;;;;;;;;;;;;;;18.76;70.54;97037.91;545781;260;65002;-73
2022/09/25 10:43:08;;;;;;;;;;;;;;;18.76;71.26;97045.89;545770;257;68770;-73
2022/09/25 10:45:39;;;;;;;;;;;;;;;18.76;70.46;97051.22;545765;260;68850;-72
2022/09/25 10:51:16;;;;;;;;;;;;;;;18.76;70.53;97040.56;545778;260;69141;-73
2022/09/25 10:53:40;;;;;;;;;;;;;;;18.77;71.04;97025.39;545635;260;68612;-73
2022/09/25 10:56:11;;;;;;;;;;;;;;;18.76;70.52;97034.45;545786;260;63283;-73
2022/09/25 10:58:40;;;;;;;;;;;;;;;18.76;70.35;97037.91;545783;260;66629;-73
2022/09/25 11:01:12;;;;;;;;;;;;;;;18.75;70.65;97036.31;545699;260;66585;-73
2022/09/25 11:03:40;;;;;;;;;;;;;;;18.76;70.34;97024.59;545722;256;70417;-73
2022/09/25 11:06:09;;;;;;;;;;;;;;;18.75;70.93;97015.02;544389;260;69079;-73
2022/09/25 11:08:39;;;;;;;;;;;;;;;18.75;70.57;97009.69;545787;256;68626;-73
2022/09/25 11:11:08;;;;;;;;;;;;;;;18.75;70.36;97007.03;545783;260;65718;-73
2022/09/25 11:13:37;;;;;;;;;;;;;;;18.76;70.83;97005.16;545740;260;68945;-73
2022/09/25 11:16:09;;;;;;;;;;;;;;;18.75;70.51;97004.36;545558;260;68794;-73
2022/09/25 11:18:38;;;;;;;;;;;;;;;18.76;70.61;96997.17;545760;260;65650;-73
2022/09/25 11:21:07;;;;;;;;;;;;;;;18.76;70.45;97005.16;545750;260;66700;-73
2022/09/25 11:23:37;;;;;;;;;;;;;;;18.76;70.66;96999.84;545506;260;68806;-73
2022/09/25 11:26:06;;;;;;;;;;;;;;;18.75;70.39;96999.04;545780;260;65072;-73
2022/09/25 11:28:35;;;;;;;;;;;;;;;18.75;70.86;97004.36;545755;260;66753;-73
2022/09/25 11:31:07;;;;;;;;;;;;;;;18.76;71.21;97015.81;545788;260;66277;-73
2022/09/25 11:33:42;;;;;;;;;;;;;;;18.77;71.02;97006.75;539195;260;65058;-73
2022/09/25 11:36:19;;;;;;;;;;;;;;;18.76;70.29;97008.63;545674;260;68726;-73
2022/09/25 11:41:39;;;;;;;;;;;;;;;18.76;70.25;97005.16;545759;260;65450;-73
2022/09/25 11:44:08;;;;;;;;;;;;;;;18.76;70.07;96999.84;545761;257;68988;-73
2022/09/25 11:46:49;;;;;;;;;;;;;;;18.76;70.33;97000.63;545698;259;66916;-73
2022/09/25 11:49:19;;;;;;;;;;;;;;;18.76;70.44;96999.84;545758;260;65489;-73
2022/09/25 11:51:49;;;;;;;;;;;;;;;18.75;70.85;96993.72;545776;260;66660;-73
2022/09/25 11:54:21;;;;;;;;;;;;;;;18.75;70.17;96991.05;545800;260;68856;-73
2022/09/25 11:56:50;;;;;;;;;;;;;;;18.76;70.78;96997.97;545776;260;65100;-73
2022/09/25 11:59:22;;;;;;;;;;;;;;;18.75;70.47;96987.59;545669;260;68525;-73
2022/09/25 12:01:51;;;;;;;;;;;;;;;18.76;70.86;96991.84;545602;260;68703;-73
2022/09/25 12:04:39;;;;;;;;;;;;;;;18.75;70.48;96988.39;545682;259;62998;-73
2022/09/25 12:07:17;;;;;;;;;;;;;;;18.75;70.73;96984.93;545582;257;68965;-73
2022/09/25 12:10:03;;;;;;;;;;;;;;;18.75;70.62;96987.59;545653;257;68715;-73
2022/09/25 12:12:34;;;;;;;;;;;;;;;18.75;71.29;96979.61;545794;260;65241;-73
2022/09/25 12:15:19;;;;;;;;;;;;;;;18.75;71.04;96972.41;545772;260;69134;-73
2022/09/25 12:17:51;;;;;;;;;;;;;;;18.75;70.69;96961.77;545752;260;68716;-73
2022/09/25 12:20:20;;;;;;;;;;;;;;;18.75;70.95;96960.97;545765;260;63176;-73
2022/09/25 12:22:55;;;;;;;;;;;;;;;18.74;70.75;96960.17;545695;259;66974;-73
2022/09/25 12:25:27;;;;;;;;;;;;;;;18.75;71.25;96972.41;546207;259;66769;-73
2022/09/25 12:27:59;;;;;;;;;;;;;;;18.75;70.75;96964.43;546944;259;65122;-73
2022/09/25 12:30:29;;;;;;;;;;;;;;;18.74;70.58;96970.83;541512;260;69048;-73
2022/09/25 12:33:11;;;;;;;;;;;;;;;18.76;71.04;96965.23;545675;260;67117;-73
2022/09/25 12:35:55;;;;;;;;;;;;;;;18.75;70.32;96967.09;545764;260;65075;-73
2022/09/25 12:38:34;;;;;;;;;;;;;;;18.75;70.77;96963.63;545711;257;68913;-73
2022/09/25 12:41:09;;;;;;;;;;;;;;;18.75;71.54;96967.09;545737;260;66493;-73
2022/09/25 12:43:40;;;;;;;;;;;;;;;18.75;71.31;96959.11;545739;260;61922;-73
2022/09/25 12:46:17;;;;;;;;;;;;;;;18.75;70.40;96964.43;545797;260;68917;-73
2022/09/25 12:48:49;;;;;;;;;;;;;;;18.75;71.41;96951.13;545622;256;51844;-73
2022/09/25 12:51:21;;;;;;;;;;;;;;;18.75;71.15;96948.45;545637;260;65002;-73
2022/09/25 12:53:52;;;;;;;;;;;;;;;18.75;71.40;96948.45;545751;256;68854;-73
2022/09/25 12:56:26;;;;;;;;;;;;;;;18.75;71.10;96950.32;545728;260;69043;-73
2022/09/25 12:59:01;;;;;;;;;;;;;;;18.73;71.41;96947.88;545756;260;63063;-73
2022/09/25 13:01:39;;;;;;;;;;;;;;;18.75;71.01;96939.67;541817;259;68944;-73
2022/09/25 13:04:34;;;;;;;;;;;;;;;18.75;71.28;96937.02;546793;259;66709;-74
2022/09/25 13:07:04;;;;;;;;;;;;;;;18.75;71.11;96932.48;546370;259;63146;-74
2022/09/25 13:09:44;;;;;;;;;;;;;;;18.74;70.12;96938.02;545669;257;69065;-73
2022/09/25 13:12:19;;;;;;;;;;;;;;;18.75;71.18;96939.67;545746;260;68669;-73
2022/09/25 13:15:03;;;;;;;;;;;;;;;18.75;70.72;96931.69;545760;260;63283;-73
2022/09/25 13:17:31;;;;;;;;;;;;;;;18.75;70.90;96929.82;545758;260;68441;-73
2022/09/25 13:20:19;;;;;;;;;;;;;;;18.74;70.96;96930.89;545740;260;68754;-74